首页
METAR-TAF:

METAR-TAF

机场 :

Wiarton, 安大略省, 加拿大

纬度: 44-45N, 经度: 081-06W, 海拔: 222米

当前天气观测

该预报发布于1小时和5分钟前的04:00 UTC
风速3节,风向南转西南,在西之间变化
温度 2°C
湿度 80%
气压 1016 hPa
能見度: 24.1公里
少量云层高于25000英尺

METAR: CYVV 020400Z 20003KT 180V260 15SM FEW250 02/M01 A2999 RMK CI1 SLP165

时间: 01:05 (05:05 UTC)

预报

该预报发布于9小时和26分钟前的19:39 UTC
预报有效从01日的 20点(UTC)到 01日的 23点(UTC)
风速7节,风向
能見度: 10公里
少量云层高于2000英尺
从 01日的 2200点(UTC)
风速5节,风向西北
能見度: 10公里
少量云层高于4000英尺
多云层高于8000英尺

TAF: CYVV 011939Z 0120/0123 36007KT P6SM FEW020 FM012200 31005KT P6SM FEW040 BKN080 RMK NXT FCST WILL BE ISSUED AT 021045Z

超过4000个机场的气象观测和天气预报(METAR&TAF报告)。

可查询的气象台以黄色和红色小点在地图上表示。

将鼠标移到小点上方,可查看气象台名称。

然后点击查看天气观测和预报。

如需切换地图:点击带黑十字的绿色按钮放大地图;点击带横线的绿色按钮缩小地图;或者点击绿色箭头查看邻近地区的地图。


METAR-TAF: